createdAt,value
2018-04-30T00:02:14.678Z,12.10
2018-04-30T00:04:42.201Z,12.10
2018-04-30T00:07:09.767Z,12.00
2018-04-30T00:09:37.288Z,12.00
2018-04-30T00:12:04.815Z,12.00
2018-04-30T00:14:32.396Z,11.80
2018-04-30T00:16:59.919Z,11.70
2018-04-30T00:19:27.483Z,11.60
2018-04-30T00:21:55.027Z,11.60
2018-04-30T00:24:22.600Z,11.40
2018-04-30T00:26:50.119Z,11.40
2018-04-30T00:29:17.659Z,11.40
2018-04-30T00:31:45.226Z,11.50
2018-04-30T00:34:12.739Z,11.50
2018-04-30T00:36:40.230Z,11.50
2018-04-30T00:39:07.783Z,11.50
2018-04-30T00:41:35.316Z,11.50
2018-04-30T00:44:02.879Z,11.60
2018-04-30T00:46:30.414Z,11.50
2018-04-30T00:48:58.682Z,11.50
2018-04-30T00:51:27.065Z,11.40
2018-04-30T00:53:54.636Z,11.40
2018-04-30T00:56:22.247Z,11.30
2018-04-30T00:58:49.784Z,11.30
2018-04-30T01:01:17.315Z,11.30
2018-04-30T01:03:45.654Z,11.40
2018-04-30T01:06:13.375Z,11.50
2018-04-30T01:08:40.903Z,11.50
2018-04-30T01:11:09.202Z,11.50
2018-04-30T01:13:36.749Z,11.50
2018-04-30T01:18:57.689Z,11.40
2018-04-30T01:21:25.283Z,11.20
2018-04-30T01:23:52.803Z,11.10
2018-04-30T01:26:25.612Z,11.00
2018-04-30T01:28:53.141Z,11.00
2018-04-30T01:31:20.669Z,10.80
2018-04-30T01:33:48.207Z,10.60
2018-04-30T01:39:08.714Z,10.30
2018-04-30T01:41:36.231Z,10.30
2018-04-30T01:44:03.746Z,10.20
2018-04-30T01:46:31.370Z,10.10
2018-04-30T01:48:58.915Z,10.10
2018-04-30T01:51:26.453Z,10.10
2018-04-30T01:53:54.756Z,9.90
2018-04-30T01:56:22.398Z,9.90
2018-04-30T01:58:49.947Z,9.80
2018-04-30T02:01:18.229Z,9.80
2018-04-30T02:03:45.824Z,9.80
2018-04-30T02:06:13.352Z,9.80
2018-04-30T02:08:40.903Z,9.80
2018-04-30T02:11:08.412Z,9.80
2018-04-30T02:13:35.924Z,9.60
2018-04-30T02:18:57.506Z,9.50
2018-04-30T02:21:25.064Z,9.50
2018-04-30T02:23:52.584Z,9.50
2018-04-30T02:26:20.111Z,9.50
2018-04-30T02:28:47.704Z,9.50
2018-04-30T02:31:15.243Z,9.50
2018-04-30T02:33:43.677Z,9.50
2018-04-30T02:36:11.234Z,9.50
2018-04-30T02:38:38.736Z,9.50
2018-04-30T02:41:07.020Z,9.50
2018-04-30T02:43:34.575Z,9.50
2018-04-30T02:49:05.611Z,9.50
2018-04-30T02:51:33.159Z,9.50
2018-04-30T02:54:00.762Z,9.50
2018-04-30T02:56:28.335Z,9.50
2018-04-30T02:58:55.843Z,9.40
2018-04-30T03:01:23.402Z,9.40
2018-04-30T03:03:50.936Z,9.40
2018-04-30T03:06:18.443Z,9.30
2018-04-30T03:08:46.007Z,9.30
2018-04-30T03:11:14.315Z,9.30
2018-04-30T03:13:41.836Z,9.30
2018-04-30T03:16:10.166Z,9.40
2018-04-30T03:18:37.684Z,9.40
2018-04-30T03:21:05.211Z,9.40
2018-04-30T03:23:32.798Z,9.40
2018-04-30T03:26:00.334Z,9.40
2018-04-30T03:28:27.866Z,9.40
2018-04-30T03:30:55.415Z,9.40
2018-04-30T03:33:22.983Z,9.40
2018-04-30T03:35:50.494Z,9.40
2018-04-30T03:38:18.839Z,9.30
2018-04-30T03:40:46.359Z,9.30
2018-04-30T03:43:13.902Z,9.20
2018-04-30T03:45:41.430Z,9.20
2018-04-30T03:48:08.934Z,9.10
2018-04-30T03:50:36.442Z,9.00
2018-04-30T03:53:04.035Z,8.90
2018-04-30T03:55:31.566Z,8.90
2018-04-30T03:57:59.099Z,8.90
2018-04-30T04:00:38.287Z,8.90
2018-04-30T04:03:17.735Z,9.00
2018-04-30T04:06:00.005Z,9.00
2018-04-30T04:08:27.566Z,9.00
2018-04-30T04:10:55.127Z,8.90
2018-04-30T04:13:22.643Z,8.90
2018-04-30T04:15:50.243Z,8.90
2018-04-30T04:18:17.733Z,8.80
2018-04-30T04:20:45.294Z,8.80
2018-04-30T04:23:12.818Z,8.80
2018-04-30T04:25:40.372Z,8.70
2018-04-30T04:28:07.955Z,8.60
2018-04-30T04:30:35.490Z,8.70
2018-04-30T04:33:03.855Z,8.80
2018-04-30T04:35:31.405Z,8.80
2018-04-30T04:37:58.916Z,8.70
2018-04-30T04:40:26.447Z,8.60
2018-04-30T04:42:54.753Z,8.60
2018-04-30T04:45:36.564Z,8.60
2018-04-30T04:48:04.135Z,8.50
2018-04-30T04:50:31.657Z,8.50
2018-04-30T04:52:59.190Z,8.50
2018-04-30T04:55:26.731Z,8.50
2018-04-30T04:57:54.359Z,8.60
2018-04-30T05:00:21.880Z,8.60
2018-04-30T05:02:49.427Z,8.60
2018-04-30T05:05:16.959Z,8.70
2018-04-30T05:07:44.474Z,8.60
2018-04-30T05:10:12.032Z,8.60
2018-04-30T05:12:39.567Z,8.60
2018-04-30T05:15:07.086Z,8.50
2018-04-30T05:17:34.669Z,8.50
2018-04-30T05:20:02.320Z,8.50
2018-04-30T05:22:29.833Z,8.40
2018-04-30T05:25:02.327Z,8.40
2018-04-30T05:27:29.854Z,8.30
2018-04-30T05:29:57.540Z,8.30
2018-04-30T05:32:25.075Z,8.70
2018-04-30T05:34:52.805Z,8.20
2018-04-30T05:37:20.400Z,8.20
2018-04-30T05:39:47.930Z,8.30
2018-04-30T05:42:15.495Z,8.40
2018-04-30T05:44:53.679Z,8.50
2018-04-30T05:47:21.236Z,8.60
2018-04-30T05:49:48.761Z,8.60
2018-04-30T05:52:16.265Z,8.70
2018-04-30T05:54:44.585Z,8.70
2018-04-30T05:57:12.102Z,8.70
2018-04-30T05:59:40.389Z,8.70
2018-04-30T06:02:08.678Z,8.70
2018-04-30T06:04:36.204Z,8.70
2018-04-30T06:07:03.765Z,8.70
2018-04-30T06:09:31.252Z,8.80
2018-04-30T06:11:58.769Z,8.90
2018-04-30T06:14:26.298Z,9.00
2018-04-30T06:16:53.811Z,8.90
2018-04-30T06:19:21.317Z,8.80
2018-04-30T06:21:48.826Z,8.70
2018-04-30T06:24:16.407Z,8.80
2018-04-30T06:26:44.026Z,8.80
2018-04-30T06:29:11.488Z,8.90
2018-04-30T06:31:39.053Z,9.00
2018-04-30T06:34:07.376Z,9.10
2018-04-30T06:36:34.902Z,9.10
2018-04-30T06:39:03.202Z,9.00
2018-04-30T06:41:30.755Z,8.90
2018-04-30T06:43:58.270Z,9.00
2018-04-30T06:46:25.945Z,8.90
2018-04-30T06:48:54.250Z,9.00
2018-04-30T06:51:21.771Z,9.00
2018-04-30T06:53:49.299Z,9.10
2018-04-30T06:56:17.028Z,9.10
2018-04-30T06:58:44.644Z,9.10
2018-04-30T07:01:12.202Z,9.10
2018-04-30T07:03:39.790Z,9.10
2018-04-30T07:09:07.623Z,9.40
2018-04-30T07:11:35.138Z,9.40
2018-04-30T07:14:02.654Z,9.50
2018-04-30T07:16:30.248Z,9.50
2018-04-30T07:18:58.584Z,9.60
2018-04-30T07:21:26.107Z,9.60
2018-04-30T07:23:53.673Z,9.60
2018-04-30T07:26:35.627Z,9.50
2018-04-30T07:29:03.360Z,9.50
2018-04-30T07:31:30.914Z,9.70
2018-04-30T07:33:58.436Z,10.00
2018-04-30T07:36:25.984Z,10.40
2018-04-30T07:38:53.530Z,10.90
2018-04-30T07:41:21.119Z,11.20
2018-04-30T07:43:48.690Z,11.40
2018-04-30T07:46:16.252Z,11.40
2018-04-30T07:48:43.853Z,11.60
2018-04-30T07:51:11.432Z,11.80
2018-04-30T07:53:39.750Z,12.50
2018-04-30T07:56:07.290Z,12.40
2018-04-30T07:58:34.839Z,12.60
2018-04-30T08:01:02.383Z,12.90
2018-04-30T08:03:29.923Z,13.10
2018-04-30T08:05:57.454Z,13.40
2018-04-30T08:08:24.962Z,13.70
2018-04-30T08:10:53.278Z,13.80
2018-04-30T08:13:20.799Z,13.80
2018-04-30T08:15:49.094Z,14.00
2018-04-30T08:18:16.674Z,14.00
2018-04-30T08:20:44.181Z,14.00
2018-04-30T08:23:11.750Z,13.90
2018-04-30T08:25:53.634Z,14.00
2018-04-30T08:28:21.150Z,13.90
2018-04-30T08:30:48.682Z,13.80
2018-04-30T08:33:16.241Z,13.90
2018-04-30T08:35:43.783Z,13.90
2018-04-30T08:38:11.297Z,13.90
2018-04-30T08:40:38.883Z,13.80
2018-04-30T08:43:06.402Z,14.00
2018-04-30T08:45:33.924Z,14.10
2018-04-30T08:48:01.522Z,14.00
2018-04-30T08:50:29.047Z,13.90
2018-04-30T08:52:56.561Z,13.80
2018-04-30T08:55:24.117Z,13.80
2018-04-30T08:57:51.651Z,13.80
2018-04-30T09:00:19.275Z,13.90
2018-04-30T09:02:46.747Z,14.00
2018-04-30T09:05:14.318Z,14.20
2018-04-30T09:07:41.903Z,14.30
2018-04-30T09:10:09.590Z,14.40
2018-04-30T09:12:37.162Z,14.70
2018-04-30T09:15:04.809Z,14.90
2018-04-30T09:17:32.329Z,15.10
2018-04-30T09:19:59.858Z,15.20
2018-04-30T09:22:27.392Z,15.40
2018-04-30T09:24:54.914Z,15.50
2018-04-30T09:27:22.467Z,15.50
2018-04-30T09:29:49.983Z,15.40
2018-04-30T09:32:17.519Z,15.30
2018-04-30T09:34:45.849Z,15.20
2018-04-30T09:37:13.365Z,15.10
2018-04-30T09:39:40.895Z,15.20
2018-04-30T09:42:08.460Z,15.30
2018-04-30T09:44:35.977Z,15.20
2018-04-30T09:47:03.498Z,15.30
2018-04-30T09:49:31.827Z,15.70
2018-04-30T09:51:59.406Z,15.70
2018-04-30T09:54:26.985Z,15.90
2018-04-30T09:56:55.318Z,16.10
2018-04-30T09:59:22.847Z,16.10
2018-04-30T10:01:50.387Z,16.30
2018-04-30T10:04:18.715Z,16.70
2018-04-30T10:06:46.258Z,16.70
2018-04-30T10:09:13.780Z,16.90
2018-04-30T10:11:42.122Z,17.40
2018-04-30T10:14:09.635Z,17.40
2018-04-30T10:16:37.153Z,17.50
2018-04-30T10:19:04.747Z,17.30
2018-04-30T10:21:32.275Z,17.40
2018-04-30T10:23:59.796Z,17.20
2018-04-30T10:26:27.365Z,17.20
2018-04-30T10:28:54.883Z,17.30
2018-04-30T10:31:22.422Z,17.20
2018-04-30T10:33:49.965Z,17.30
2018-04-30T10:36:31.817Z,17.20
2018-04-30T10:38:59.377Z,17.30
2018-04-30T10:41:26.901Z,17.20
2018-04-30T10:43:55.190Z,17.00
2018-04-30T10:46:22.735Z,16.90
2018-04-30T10:48:50.274Z,17.00
2018-04-30T10:51:17.799Z,17.20
2018-04-30T10:53:45.344Z,17.30
2018-04-30T10:56:12.906Z,17.10
2018-04-30T10:58:40.423Z,17.00
2018-04-30T11:01:08.714Z,17.20
2018-04-30T11:03:36.278Z,17.20
2018-04-30T11:06:03.794Z,17.30
2018-04-30T11:08:31.314Z,17.40
2018-04-30T11:10:58.846Z,17.50
2018-04-30T11:13:26.399Z,17.30
2018-04-30T11:15:53.977Z,17.30
2018-04-30T11:18:21.495Z,17.30
2018-04-30T11:20:49.081Z,17.40
2018-04-30T11:23:16.587Z,17.70
2018-04-30T11:25:44.108Z,17.70
2018-04-30T11:28:11.651Z,17.80
2018-04-30T11:30:39.183Z,17.90
2018-04-30T11:33:06.717Z,18.00
2018-04-30T11:35:34.258Z,17.70
2018-04-30T11:38:01.855Z,17.80
2018-04-30T11:40:29.385Z,17.80
2018-04-30T11:42:56.915Z,18.00
2018-04-30T11:45:24.679Z,18.40
2018-04-30T11:47:52.204Z,18.50
2018-04-30T11:50:20.575Z,18.40
2018-04-30T11:52:48.150Z,18.40
2018-04-30T11:55:16.694Z,18.30
2018-04-30T11:57:44.270Z,18.30
2018-04-30T12:00:11.806Z,18.30
2018-04-30T12:02:39.332Z,18.30
2018-04-30T12:05:12.035Z,18.30
2018-04-30T12:07:39.567Z,18.40
2018-04-30T12:10:07.099Z,18.60
2018-04-30T12:12:34.719Z,18.50
2018-04-30T12:15:07.387Z,18.30
2018-04-30T12:17:34.897Z,18.30
2018-04-30T12:20:03.237Z,18.50
2018-04-30T12:22:30.790Z,18.50
2018-04-30T12:24:58.307Z,18.50
2018-04-30T12:27:25.874Z,18.20
2018-04-30T12:29:53.411Z,18.10
2018-04-30T12:32:21.703Z,18.20
2018-04-30T12:34:49.282Z,18.20
2018-04-30T12:37:16.794Z,18.20
2018-04-30T12:39:44.330Z,18.20
2018-04-30T12:42:11.878Z,17.90
2018-04-30T12:44:39.411Z,17.90
2018-04-30T12:47:06.960Z,17.90
2018-04-30T12:49:34.577Z,17.80
2018-04-30T12:52:02.790Z,17.70
2018-04-30T12:54:30.353Z,17.70
2018-04-30T12:56:57.922Z,17.60
2018-04-30T12:59:25.462Z,17.50
2018-04-30T13:01:53.014Z,17.50
2018-04-30T13:04:20.561Z,17.40
2018-04-30T13:06:48.918Z,17.30
2018-04-30T13:09:16.492Z,17.30
2018-04-30T13:11:44.029Z,17.20
2018-04-30T13:14:11.581Z,17.40
2018-04-30T13:16:39.124Z,17.30
2018-04-30T13:19:06.687Z,17.20
2018-04-30T13:21:34.217Z,17.20
2018-04-30T13:24:02.571Z,17.10
2018-04-30T13:26:30.100Z,17.00
2018-04-30T13:28:57.625Z,17.00
2018-04-30T13:31:25.144Z,16.80
2018-04-30T13:33:52.682Z,16.80
2018-04-30T13:42:15.267Z,16.90
2018-04-30T13:47:50.148Z,16.70
2018-04-30T13:50:17.718Z,16.70
2018-04-30T13:52:45.250Z,16.60
2018-04-30T13:55:12.850Z,16.60
2018-04-30T13:57:40.398Z,16.60
2018-04-30T14:00:08.675Z,17.20
2018-04-30T14:02:36.222Z,17.20
2018-04-30T14:05:24.133Z,17.50
2018-04-30T14:07:51.666Z,17.50
2018-04-30T14:10:19.210Z,17.50
2018-04-30T14:12:46.770Z,17.50
2018-04-30T14:15:14.306Z,17.60
2018-04-30T14:17:41.838Z,17.60
2018-04-30T14:20:09.434Z,17.50
2018-04-30T14:22:36.970Z,17.50
2018-04-30T14:25:09.953Z,17.40
2018-04-30T14:27:37.485Z,17.30
2018-04-30T14:30:05.008Z,17.20
2018-04-30T14:32:32.558Z,17.20
2018-04-30T14:35:00.073Z,17.20
2018-04-30T14:37:27.590Z,17.20
2018-04-30T14:39:55.907Z,17.30
2018-04-30T14:42:23.417Z,17.30
2018-04-30T14:44:56.127Z,17.30
2018-04-30T14:47:23.663Z,17.20
2018-04-30T14:49:51.187Z,17.20
2018-04-30T14:52:18.761Z,17.20
2018-04-30T14:54:46.295Z,17.30
2018-04-30T14:57:14.608Z,17.00
2018-04-30T14:59:42.181Z,17.00
2018-04-30T15:02:09.694Z,17.00
2018-04-30T15:04:37.241Z,17.00
2018-04-30T15:07:04.791Z,16.90
2018-04-30T15:09:32.352Z,16.80
2018-04-30T15:11:59.870Z,16.90
2018-04-30T15:14:27.404Z,16.90
2018-04-30T15:16:54.940Z,16.90
2018-04-30T15:19:23.243Z,17.10
2018-04-30T15:21:50.783Z,17.00
2018-04-30T15:24:19.096Z,17.10
2018-04-30T15:26:46.628Z,17.10
2018-04-30T15:29:14.154Z,17.10
2018-04-30T15:31:41.682Z,17.20
2018-04-30T15:34:09.290Z,17.20
2018-04-30T15:36:37.596Z,17.30
2018-04-30T15:39:05.118Z,17.30
2018-04-30T15:41:32.622Z,17.10
2018-04-30T15:44:00.183Z,17.00
2018-04-30T15:46:42.108Z,17.00
2018-04-30T15:49:11.111Z,16.70
2018-04-30T15:51:38.634Z,16.70
2018-04-30T15:54:06.198Z,16.70
2018-04-30T15:56:33.758Z,16.60
2018-04-30T15:59:01.310Z,16.50
2018-04-30T16:01:28.826Z,16.50
2018-04-30T16:03:56.358Z,16.50
2018-04-30T16:06:23.907Z,16.40
2018-04-30T16:08:51.456Z,16.40
2018-04-30T16:11:19.023Z,16.40
2018-04-30T16:13:46.545Z,16.40
2018-04-30T16:16:14.083Z,16.40
2018-04-30T16:18:41.655Z,16.40
2018-04-30T16:21:09.183Z,16.50
2018-04-30T16:23:37.503Z,16.50
2018-04-30T16:26:05.040Z,16.50
2018-04-30T16:28:32.574Z,16.50
2018-04-30T16:31:00.858Z,16.60
2018-04-30T16:33:28.376Z,16.60
2018-04-30T16:35:55.925Z,16.50
2018-04-30T16:38:23.526Z,16.60
2018-04-30T16:40:51.117Z,16.50
2018-04-30T16:43:18.650Z,16.50
2018-04-30T16:45:46.954Z,16.40
2018-04-30T16:48:14.516Z,16.30
2018-04-30T16:50:42.083Z,16.40
2018-04-30T16:53:09.678Z,16.30
2018-04-30T16:55:37.177Z,16.20
2018-04-30T16:58:04.710Z,16.20
2018-04-30T17:00:32.278Z,16.10
2018-04-30T17:02:59.819Z,16.10
2018-04-30T17:05:27.571Z,16.10
2018-04-30T17:07:55.179Z,16.20
2018-04-30T17:10:22.708Z,16.10
2018-04-30T17:12:50.242Z,16.10
2018-04-30T17:15:17.787Z,16.00
2018-04-30T17:17:45.329Z,16.00
2018-04-30T17:20:12.893Z,15.90
2018-04-30T17:22:40.423Z,15.80
2018-04-30T17:25:07.958Z,15.80
2018-04-30T17:27:35.535Z,15.80
2018-04-30T17:30:03.038Z,15.80
2018-04-30T17:32:30.599Z,15.80
2018-04-30T17:34:58.235Z,15.80
2018-04-30T17:37:26.579Z,15.80
2018-04-30T17:39:54.147Z,15.70
2018-04-30T17:42:22.486Z,15.70
2018-04-30T17:47:53.591Z,15.40
2018-04-30T17:50:21.212Z,15.40
2018-04-30T17:52:48.782Z,15.40
2018-04-30T17:58:19.059Z,15.30
2018-04-30T18:00:46.582Z,15.20
2018-04-30T18:03:14.208Z,15.20
2018-04-30T18:05:41.782Z,15.20
2018-04-30T18:08:09.394Z,15.30
2018-04-30T18:10:36.990Z,15.20
2018-04-30T18:13:04.573Z,15.20
2018-04-30T18:15:32.142Z,15.20
2018-04-30T18:17:59.752Z,15.10
2018-04-30T18:20:27.759Z,15.00
2018-04-30T18:22:55.358Z,14.90
2018-04-30T18:25:22.928Z,14.80
2018-04-30T18:27:50.542Z,14.80
2018-04-30T18:30:18.127Z,14.70
2018-04-30T18:32:46.497Z,14.70
2018-04-30T18:35:14.057Z,14.70
2018-04-30T18:37:41.632Z,14.70
2018-04-30T18:40:09.999Z,14.60
2018-04-30T18:42:37.608Z,14.60
2018-04-30T18:45:05.214Z,14.50
2018-04-30T18:47:32.800Z,14.40
2018-04-30T18:50:00.382Z,14.40
2018-04-30T18:52:27.993Z,14.40
2018-04-30T18:54:55.566Z,14.40
2018-04-30T18:57:23.922Z,14.30
2018-04-30T18:59:51.472Z,14.20
2018-04-30T19:02:19.062Z,14.20
2018-04-30T19:04:46.890Z,14.10
2018-04-30T19:07:14.441Z,14.10
2018-04-30T19:09:41.999Z,14.00
2018-04-30T19:12:09.587Z,14.00
2018-04-30T19:14:37.187Z,14.00
2018-04-30T19:17:04.777Z,14.00
2018-04-30T19:19:32.333Z,14.00
2018-04-30T19:21:59.947Z,14.00
2018-04-30T19:24:27.530Z,14.00
2018-04-30T19:27:04.742Z,14.00
2018-04-30T19:29:32.319Z,14.00
2018-04-30T19:31:59.863Z,14.00
2018-04-30T19:34:27.477Z,13.90
2018-04-30T19:36:55.148Z,13.80
2018-04-30T19:39:22.726Z,13.80
2018-04-30T19:41:50.315Z,13.80
2018-04-30T19:44:17.855Z,13.70
2018-04-30T19:46:50.610Z,13.70
2018-04-30T19:49:18.148Z,13.70
2018-04-30T19:51:45.742Z,13.70
2018-04-30T19:54:13.328Z,13.60
2018-04-30T19:56:40.871Z,13.60
2018-04-30T19:59:08.470Z,13.60
2018-04-30T20:01:36.061Z,13.70
2018-04-30T20:04:03.619Z,13.70
2018-04-30T20:06:31.223Z,13.70
2018-04-30T20:08:58.862Z,13.60
2018-04-30T20:11:26.376Z,13.50
2018-04-30T20:13:54.706Z,13.40
2018-04-30T20:16:22.311Z,13.40
2018-04-30T20:18:49.870Z,13.40
2018-04-30T20:21:17.473Z,13.50
2018-04-30T20:23:45.019Z,13.40
2018-04-30T20:26:12.623Z,13.40
2018-04-30T20:28:40.190Z,13.40
2018-04-30T20:31:07.758Z,13.40
2018-04-30T20:33:35.398Z,13.50
2018-04-30T20:36:02.968Z,13.50
2018-04-30T20:38:30.544Z,13.40
2018-04-30T20:40:58.891Z,13.40
2018-04-30T20:43:26.446Z,13.30
2018-04-30T20:45:54.086Z,13.30
2018-04-30T20:48:21.715Z,13.30
2018-04-30T20:50:50.030Z,13.20
2018-04-30T20:53:17.574Z,13.20
2018-04-30T20:55:45.166Z,13.20
2018-04-30T20:58:12.762Z,13.30
2018-04-30T21:00:41.095Z,13.30
2018-04-30T21:03:08.700Z,13.30
2018-04-30T21:05:37.032Z,13.30
2018-04-30T21:08:04.583Z,13.30
2018-04-30T21:10:32.311Z,13.30
2018-04-30T21:12:59.931Z,13.30
2018-04-30T21:15:27.559Z,13.30
2018-04-30T21:17:55.139Z,13.40
2018-04-30T21:20:22.739Z,13.30
2018-04-30T21:22:50.367Z,13.30
2018-04-30T21:25:18.007Z,13.30
2018-04-30T21:27:45.546Z,13.30
2018-04-30T21:30:13.122Z,13.30
2018-04-30T21:32:40.708Z,13.20
2018-04-30T21:35:22.850Z,13.20
2018-04-30T21:37:50.419Z,13.10
2018-04-30T21:40:18.022Z,13.10
2018-04-30T21:42:45.560Z,13.10
2018-04-30T21:45:13.183Z,13.10
2018-04-30T21:47:40.755Z,13.10
2018-04-30T21:50:08.332Z,13.10
2018-04-30T21:52:35.910Z,13.10
2018-04-30T21:55:03.527Z,13.10
2018-04-30T21:57:31.103Z,13.10
2018-04-30T21:59:58.688Z,13.10
2018-04-30T22:02:26.238Z,13.10
2018-04-30T22:04:53.854Z,13.10
2018-04-30T22:07:21.431Z,13.00
2018-04-30T22:09:48.998Z,13.00
2018-04-30T22:12:16.599Z,12.90
2018-04-30T22:14:44.164Z,12.80
2018-04-30T22:17:11.743Z,12.60
2018-04-30T22:19:40.131Z,12.60
2018-04-30T22:22:07.739Z,12.60
2018-04-30T22:24:35.303Z,12.60
2018-04-30T22:27:02.876Z,12.60
2018-04-30T22:29:30.430Z,12.50
2018-04-30T22:31:58.394Z,12.50
2018-04-30T22:34:25.942Z,12.50
2018-04-30T22:36:53.636Z,12.50
2018-04-30T22:39:21.222Z,12.50
2018-04-30T22:41:49.602Z,12.30
2018-04-30T22:44:17.167Z,12.30
2018-04-30T22:49:37.926Z,12.10
2018-04-30T22:52:05.513Z,11.90
2018-04-30T22:54:33.111Z,11.80
2018-04-30T22:57:00.670Z,11.80
2018-04-30T22:59:28.260Z,11.70
2018-04-30T23:01:55.811Z,11.70
2018-04-30T23:04:23.362Z,11.60
2018-04-30T23:06:50.964Z,11.60
2018-04-30T23:09:18.502Z,11.50
2018-04-30T23:11:46.098Z,11.50
2018-04-30T23:14:13.653Z,11.50
2018-04-30T23:16:41.243Z,11.50
2018-04-30T23:19:08.828Z,11.50
2018-04-30T23:21:36.446Z,11.50
2018-04-30T23:24:04.782Z,11.60
2018-04-30T23:26:32.354Z,11.60
2018-04-30T23:28:59.953Z,11.60
2018-04-30T23:31:27.523Z,11.70
2018-04-30T23:33:55.083Z,11.70
2018-04-30T23:36:22.694Z,11.60
2018-04-30T23:38:50.311Z,11.40
2018-04-30T23:41:17.903Z,11.40
2018-04-30T23:43:45.499Z,11.40
2018-04-30T23:46:13.110Z,11.40
2018-04-30T23:48:40.678Z,11.40
2018-04-30T23:51:08.266Z,11.40
2018-04-30T23:53:35.857Z,11.40
2018-04-30T23:56:03.573Z,11.30
2018-04-30T23:58:31.131Z,11.30
